createdAt,value
2023-01-05T00:02:52.267Z,12.92
2023-01-05T00:07:57.569Z,12.92
2023-01-05T00:13:01.193Z,12.91
2023-01-05T00:18:04.921Z,13.00
2023-01-05T00:23:10.508Z,13.09
2023-01-05T00:28:14.178Z,13.19
2023-01-05T00:33:18.694Z,13.20
2023-01-05T00:38:23.998Z,13.22
2023-01-05T00:43:27.670Z,13.07
2023-01-05T00:48:31.326Z,13.13
2023-01-05T00:53:36.690Z,13.13
2023-01-05T00:58:40.325Z,13.18
2023-01-05T01:03:44.031Z,13.21
2023-01-05T01:08:49.421Z,13.27
2023-01-05T01:13:53.062Z,13.30
2023-01-05T01:18:59.662Z,13.30
2023-01-05T01:24:08.673Z,13.40
2023-01-05T01:29:12.563Z,13.34
2023-01-05T01:34:16.351Z,13.37
2023-01-05T01:39:21.708Z,13.39
2023-01-05T01:44:50.641Z,13.39
2023-01-05T01:49:56.499Z,13.43
2023-01-05T01:55:04.394Z,13.54
2023-01-05T02:00:10.770Z,13.55
2023-01-05T02:05:17.140Z,13.57
2023-01-05T02:10:45.658Z,13.59
2023-01-05T02:15:56.213Z,13.59
2023-01-05T02:21:19.687Z,13.62
2023-01-05T02:27:12.984Z,13.51
2023-01-05T02:32:23.471Z,13.38
2023-01-05T02:37:33.609Z,13.27
2023-01-05T02:42:39.859Z,13.18
2023-01-05T02:47:46.419Z,13.15
2023-01-05T02:52:56.613Z,13.15
2023-01-05T02:58:04.693Z,13.12
2023-01-05T03:03:16.306Z,13.13
2023-01-05T03:08:25.085Z,13.15
2023-01-05T03:13:35.065Z,13.20
2023-01-05T03:18:59.679Z,13.25
2023-01-05T03:24:03.381Z,13.27
2023-01-05T03:29:07.093Z,13.31
2023-01-05T03:34:18.227Z,13.33
2023-01-05T03:39:26.961Z,13.34
2023-01-05T03:44:30.594Z,13.31
2023-01-05T03:49:36.301Z,13.36
2023-01-05T03:54:39.959Z,13.39
2023-01-05T03:59:43.632Z,13.37
2023-01-05T04:04:48.994Z,13.34
2023-01-05T04:09:52.721Z,13.39
2023-01-05T04:47:38.769Z,14.10
2023-01-05T04:52:42.439Z,13.70
2023-01-05T04:57:46.256Z,13.49
2023-01-05T05:02:51.751Z,13.06
2023-01-05T05:07:55.435Z,13.12
2023-01-05T05:12:59.064Z,13.06
2023-01-05T05:18:08.927Z,13.12
2023-01-05T05:23:13.249Z,13.20
2023-01-05T05:28:16.924Z,13.14
2023-01-05T05:33:25.139Z,13.10
2023-01-05T05:38:28.789Z,13.04
2023-01-05T05:43:32.488Z,13.06
2023-01-05T05:48:37.875Z,13.13
2023-01-05T05:53:42.590Z,13.22
2023-01-05T15:34:24.479Z,12.38
2023-01-05T18:19:39.605Z,11.63
2023-01-05T18:24:43.623Z,11.40
2023-01-05T18:29:47.243Z,11.34
2023-01-05T18:34:52.530Z,11.57
2023-01-05T18:39:56.172Z,11.68
2023-01-05T18:45:04.909Z,11.62
2023-01-05T18:50:20.435Z,11.58
2023-01-05T18:55:24.080Z,11.72
2023-01-05T19:00:27.819Z,11.92
2023-01-05T19:05:33.191Z,12.08
2023-01-05T19:10:37.377Z,12.23
2023-01-05T19:15:41.024Z,12.27
2023-01-05T19:20:46.346Z,12.16
2023-01-05T19:25:49.993Z,12.28
2023-01-05T19:30:53.665Z,12.05
2023-01-05T19:36:04.318Z,12.03
2023-01-05T19:41:11.110Z,11.90
2023-01-05T19:46:15.907Z,11.68
2023-01-05T19:51:22.541Z,11.60
2023-01-05T19:56:27.891Z,11.52
2023-01-05T20:01:34.673Z,11.43
2023-01-05T20:06:41.946Z,11.50
2023-01-05T20:11:47.807Z,11.64
2023-01-05T20:16:52.892Z,11.65
2023-01-05T20:22:00.191Z,11.82
2023-01-05T20:27:06.453Z,11.99
2023-01-05T20:32:12.181Z,12.09
2023-01-05T20:37:17.482Z,12.22
2023-01-05T20:42:21.828Z,12.28
2023-01-05T20:47:25.501Z,12.13
2023-01-05T20:52:31.351Z,12.24
2023-01-05T20:57:35.004Z,12.25
2023-01-05T21:02:38.737Z,12.40
2023-01-05T21:07:44.834Z,12.48
2023-01-05T21:12:48.470Z,12.57
2023-01-05T21:17:52.116Z,12.62
2023-01-05T21:22:57.511Z,12.71
2023-01-05T21:28:01.162Z,12.71
2023-01-05T21:33:04.920Z,12.64
2023-01-05T21:38:10.251Z,12.75
2023-01-05T21:43:13.937Z,12.95
2023-01-05T21:48:17.589Z,13.01
2023-01-05T21:53:22.919Z,13.06
2023-01-05T21:58:26.635Z,13.15
2023-01-05T22:03:30.755Z,12.99
2023-01-05T22:08:36.179Z,13.07
2023-01-05T22:13:40.627Z,13.22
2023-01-05T22:18:44.243Z,13.54
2023-01-05T22:23:49.584Z,13.56
2023-01-05T22:28:53.904Z,13.81
2023-01-05T22:33:58.749Z,14.21
2023-01-05T22:39:04.033Z,14.13
2023-01-05T22:44:08.237Z,14.26
2023-01-05T22:49:14.589Z,14.37
2023-01-05T22:54:19.980Z,14.07
2023-01-05T22:59:23.653Z,14.08
2023-01-05T23:04:27.359Z,14.08
2023-01-05T23:09:32.664Z,13.87
2023-01-05T23:14:36.299Z,13.46
2023-01-05T23:19:40.824Z,13.60
2023-01-05T23:24:46.265Z,13.75
2023-01-05T23:29:49.878Z,13.64
2023-01-05T23:34:53.511Z,13.50
2023-01-05T23:39:58.783Z,13.25
2023-01-05T23:45:02.432Z,13.10
2023-01-05T23:50:06.976Z,13.37
2023-01-05T23:55:14.157Z,13.43
